Weather reports worldwide

Advertisment
Siracusa, Italy (16464): temperature & dewpoint: 18.06.2017 05:00:00 - 24.06.2017 05:00:00 (CEST)Siracusa, Italy (16464): wind speed: 18.06.2017 05:00:00 - 24.06.2017 05:00:00 (CEST)Siracusa, Italy (16464): wind direction: 18.06.2017 05:00:00 - 24.06.2017 05:00:00 (CEST)Siracusa, Italy (16464): reduced air pressure: 18.06.2017 05:00:00 - 24.06.2017 05:00:00 (CEST)Siracusa, Italy (16464): precipitation: 18.06.2017 05:00:00 - 24.06.2017 05:00:00 (CEST)
Date & Time tt [°C] td [°C] ff [km/h] ff [kn] dd ppp [hPa] rr [mm]
24.06.2017 05:00:00 - - - - - - -
24.06.2017 04:00:00 21,9 17,0 0 0 N 1017,6 -
24.06.2017 03:00:00 22,2 16,6 4 2 NW 1017,9 -
24.06.2017 02:00:00 23,9 18,7 2 1 WNW 1018,3 0,0
24.06.2017 01:00:00 25,0 20,4 4 2 N 1018,5 -
24.06.2017 00:00:00 25,3 20,7 11 6 N 1018,6 -
23.06.2017 23:00:00 25,4 20,6 2 1 SW 1018,6 -
23.06.2017 22:00:00 25,6 19,7 2 1 N 1018,5 -
23.06.2017 21:00:00 26,8 20,6 5 3 ESE 1018,0 -
23.06.2017 20:00:00 27,8 21,3 8 4 S 1017,6 0,0
23.06.2017 19:00:00 - - - - - - -
23.06.2017 18:00:00 27,8 22,7 21 11 N 1017,7 -
23.06.2017 17:00:00 29,0 22,0 16 9 S 1018,1 -
23.06.2017 16:00:00 29,0 22,4 16 9 S 1018,6 -
23.06.2017 15:00:00 28,5 21,0 11 6 SE 1019,1 -
23.06.2017 14:00:00 27,3 21,8 11 6 ESE 1019,4 0,0
23.06.2017 13:00:00 27,7 21,2 8 4 ESE 1019,8 -
23.06.2017 12:00:00 26,6 19,9 9 5 E 1019,9 -
23.06.2017 11:00:00 26,2 20,0 8 4 E 1019,8 -
23.06.2017 10:00:00 26,1 20,8 5 3 E 1019,6 -
23.06.2017 09:00:00 25,8 19,6 5 3 SSE 1019,4 -
23.06.2017 08:00:00 - - - - - - -
23.06.2017 07:00:00 21,6 16,3 2 1 NW 1019,1 -
23.06.2017 06:00:00 21,0 15,7 5 3 NW 1018,8 -
23.06.2017 05:00:00 23,5 20,2 5 3 N 1018,6 -
23.06.2017 04:00:00 23,8 19,9 2 1 NNE 1018,5 -
23.06.2017 03:00:00 23,7 18,3 0 0 N 1018,5 -
23.06.2017 02:00:00 24,4 19,6 5 3 NNW 1018,9 0,0
23.06.2017 01:00:00 24,6 18,0 4 2 NNW 1019,1 -
23.06.2017 00:00:00 24,8 17,9 4 2 N 1018,9 -
22.06.2017 23:00:00 25,3 18,4 4 2 NNW 1018,8 -
22.06.2017 22:00:00 25,7 18,6 4 2 NE 1018,5 -
22.06.2017 21:00:00 25,8 19,4 4 2 ENE 1018,1 -
22.06.2017 20:00:00 26,6 19,7 5 3 E 1017,9 0,0
22.06.2017 19:00:00 - - - - - - -
22.06.2017 18:00:00 28,2 18,8 8 4 SSE 1017,6 -
22.06.2017 17:00:00 29,2 14,9 8 4 SE 1017,7 -
22.06.2017 16:00:00 28,7 15,9 9 5 SSE 1017,9 -
22.06.2017 15:00:00 28,7 18,7 9 5 SSE 1018,2 -
22.06.2017 14:00:00 28,5 13,9 9 5 ESE 1018,4 0,0
22.06.2017 13:00:00 28,4 13,1 11 6 ENE 1018,5 -
22.06.2017 12:00:00 28,4 17,5 13 7 N 1018,3 -
22.06.2017 11:00:00 27,5 16,1 15 8 N 1018,2 -
22.06.2017 10:00:00 27,1 15,7 13 7 N 1018,1 -
22.06.2017 09:00:00 27,1 14,8 8 4 N 1017,7 -
22.06.2017 08:00:00 23,5 16,0 0 0 N 1017,6 0,0
22.06.2017 07:00:00 20,8 13,9 4 2 NW 1017,2 -
22.06.2017 06:00:00 20,0 13,1 5 3 NW 1016,9 -
22.06.2017 05:00:00 20,6 13,2 2 1 NW 1016,7 -
22.06.2017 04:00:00 21,2 14,5 0 0 N 1016,7 -
22.06.2017 03:00:00 21,2 14,0 4 2 NW 1016,9 -
22.06.2017 02:00:00 21,8 14,1 4 2 WNW 1017,3 0,0
22.06.2017 01:00:00 23,5 15,7 4 2 WNW 1017,6 -
22.06.2017 00:00:00 25,1 17,7 2 1 WNW 1017,6 -
21.06.2017 23:00:00 25,7 18,1 5 3 N 1017,3 -
21.06.2017 22:00:00 26,4 16,9 11 6 NNE 1017,1 -
21.06.2017 21:00:00 27,2 15,2 5 3 NE 1016,4 -
21.06.2017 20:00:00 28,1 16,0 5 3 ENE 1016,0 0,0
21.06.2017 19:00:00 29,8 15,8 4 2 SE 1015,9 -
21.06.2017 18:00:00 29,9 15,2 8 4 SSE 1015,9 -
21.06.2017 17:00:00 29,1 15,2 5 3 S 1016,5 -
21.06.2017 16:00:00 28,0 14,9 5 3 S 1016,7 -
21.06.2017 15:00:00 22,3 15,6 0 0 N 1017,5 0,0
21.06.2017 14:00:00 22,3 15,6 0 0 N 1017,5 0,0
21.06.2017 13:00:00 22,3 15,6 0 0 N 1017,5 0,0
21.06.2017 12:00:00 22,3 15,6 0 0 N 1017,5 0,0
21.06.2017 11:00:00 22,3 15,6 0 0 N 1017,5 0,0
21.06.2017 10:00:00 22,3 15,6 0 0 N 1017,5 0,0
21.06.2017 09:00:00 22,3 15,6 0 0 N 1017,5 0,0
21.06.2017 08:00:00 22,3 15,6 0 0 N 1017,5 0,0
21.06.2017 07:00:00 20,2 14,0 2 1 S 1017,5 -
21.06.2017 06:00:00 19,6 13,0 0 0 N 1017,6 -
21.06.2017 05:00:00 20,1 12,5 2 1 W 1017,5 -
21.06.2017 04:00:00 20,5 12,9 4 2 NW 1017,5 -
21.06.2017 03:00:00 20,9 12,8 2 1 NW 1018,0 -
21.06.2017 02:00:00 21,5 12,8 2 1 NW 1018,4 0,0
21.06.2017 01:00:00 22,8 13,5 2 1 W 1019,0 -
21.06.2017 00:00:00 23,6 13,9 5 3 WNW 1019,5 -
20.06.2017 23:00:00 24,4 15,3 8 4 WSW 1019,6 -
20.06.2017 22:00:00 25,0 17,4 9 5 SW 1019,3 -
20.06.2017 21:00:00 25,7 17,8 13 7 SSW 1019,0 -
20.06.2017 20:00:00 25,5 19,3 16 9 S 1019,0 -
20.06.2017 19:00:00 26,4 17,9 21 11 S 1019,0 -
20.06.2017 18:00:00 26,9 16,7 18 10 S 1019,2 -
20.06.2017 17:00:00 27,2 16,7 18 10 S 1019,7 -
20.06.2017 16:00:00 27,6 17,1 13 7 SSE 1020,2 -
20.06.2017 15:00:00 27,0 17,1 11 6 ESE 1020,5 -
20.06.2017 14:00:00 26,3 17,6 13 7 E 1020,9 -
20.06.2017 13:00:00 27,0 17,4 8 4 E 1021,4 -
20.06.2017 12:00:00 26,8 13,1 13 7 E 1021,7 -
20.06.2017 11:00:00 26,6 14,9 9 5 N 1021,5 -
20.06.2017 10:00:00 25,6 16,9 13 7 N 1021,3 -
20.06.2017 09:00:00 24,9 16,8 15 8 N - -
20.06.2017 08:00:00 - - - - - - -
20.06.2017 07:00:00 - - - - - - -
20.06.2017 06:00:00 - - - - - - -
20.06.2017 05:00:00 - - - - - - -
20.06.2017 04:00:00 - - - - - - -
20.06.2017 03:00:00 - - - - - - -
20.06.2017 02:00:00 - - - - - - -
20.06.2017 01:00:00 - - - - - - -
20.06.2017 00:00:00 - - - - - - -
19.06.2017 23:00:00 - - - - - - -
19.06.2017 22:00:00 - - - - - - -
19.06.2017 21:00:00 - - - - - - -
19.06.2017 20:00:00 - - - - - - -
19.06.2017 19:00:00 - - - - - - -
19.06.2017 18:00:00 - - - - - - -
19.06.2017 17:00:00 - - - - - - -
19.06.2017 16:00:00 - - - - - - -
19.06.2017 15:00:00 26,8 16,1 11 6 S 1018,4 -
19.06.2017 14:00:00 27,2 17,0 11 6 SSE 1018,3 0,0
19.06.2017 13:00:00 26,3 15,6 13 7 S 1018,4 -
19.06.2017 12:00:00 26,1 16,3 11 6 S 1018,6 -
19.06.2017 11:00:00 25,3 16,6 18 10 S 1018,4 -
19.06.2017 10:00:00 24,0 16,5 15 8 S 1018,2 -
19.06.2017 09:00:00 24,0 15,7 8 4 S 1018,5 -
19.06.2017 08:00:00 21,7 16,4 5 3 WNW 1018,3 0,0
19.06.2017 07:00:00 18,8 14,4 5 3 WNW 1018,0 -
19.06.2017 06:00:00 18,1 13,9 5 3 WNW 1017,7 -
19.06.2017 05:00:00 18,0 13,4 5 3 WNW 1017,2 -
19.06.2017 04:00:00 18,6 13,6 4 2 WNW 1017,3 -
19.06.2017 03:00:00 18,9 13,9 4 2 NW 1017,2 -
19.06.2017 02:00:00 19,2 13,5 4 2 WNW 1017,5 0,0
19.06.2017 01:00:00 20,0 13,4 4 2 NW 1017,6 -
19.06.2017 00:00:00 22,2 14,5 2 1 WNW 1017,7 -
18.06.2017 23:00:00 23,1 15,1 5 3 ENE 1017,6 -
18.06.2017 22:00:00 23,3 15,0 5 3 E 1017,1 -
18.06.2017 21:00:00 23,5 15,7 5 3 E 1016,5 -
18.06.2017 20:00:00 23,8 15,5 9 5 E 1015,6 0,0
18.06.2017 19:00:00 24,3 16,2 9 5 E 1015,1 -
18.06.2017 18:00:00 24,6 16,0 9 5 ESE 1014,7 -
18.06.2017 17:00:00 24,8 15,9 11 6 N 1014,7 -
18.06.2017 16:00:00 25,3 15,5 11 6 ESE 1015,0 -
18.06.2017 15:00:00 24,8 15,6 11 6 E 1015,0 -
18.06.2017 14:00:00 24,7 15,0 13 7 E 1015,0 0,0
18.06.2017 13:00:00 24,9 14,3 15 8 E 1015,2 -
18.06.2017 12:00:00 25,3 16,1 15 8 SSW 1015,4 -
18.06.2017 11:00:00 25,5 17,6 16 9 ENE 1015,2 -
18.06.2017 10:00:00 25,3 19,8 13 7 ENE 1014,5 -
18.06.2017 09:00:00 24,8 19,3 13 7 NE 1014,0 -
18.06.2017 08:00:00 25,3 20,3 13 7 ENE 1013,2 0,0
18.06.2017 07:00:00 24,5 19,9 13 7 NE 1012,3 -
18.06.2017 06:00:00 24,4 20,9 9 5 NE 1011,9 -
18.06.2017 05:00:00 24,7 19,7 13 7 NNE 1011,4 -

tt = temperature
td = dewpoint
ff = wind speed
dd = wind direction
ppp = reduced air pressure
rr = precipitation

Next stations